sensor_id;sensor_type;location;lat;lon;timestamp;P1;durP1;ratioP1;P2;durP2;ratioP2
18210;SDS011;9231;48.852;9.882;2022-10-23T00:02:19;6.07;;;3.40;;
18210;SDS011;9231;48.852;9.882;2022-10-23T00:04:48;6.37;;;3.17;;
18210;SDS011;9231;48.852;9.882;2022-10-23T00:07:15;9.23;;;3.80;;
18210;SDS011;9231;48.852;9.882;2022-10-23T00:09:41;7.20;;;3.70;;
18210;SDS011;9231;48.852;9.882;2022-10-23T00:12:08;8.90;;;3.70;;
18210;SDS011;9231;48.852;9.882;2022-10-23T00:14:34;9.23;;;3.73;;
18210;SDS011;9231;48.852;9.882;2022-10-23T00:17:01;9.03;;;3.93;;
18210;SDS011;9231;48.852;9.882;2022-10-23T00:19:29;5.97;;;3.00;;
18210;SDS011;9231;48.852;9.882;2022-10-23T00:21:55;6.17;;;3.50;;
18210;SDS011;9231;48.852;9.882;2022-10-23T00:24:21;8.10;;;3.40;;
18210;SDS011;9231;48.852;9.882;2022-10-23T00:26:48;7.87;;;3.20;;
18210;SDS011;9231;48.852;9.882;2022-10-23T00:29:14;7.47;;;3.00;;
18210;SDS011;9231;48.852;9.882;2022-10-23T00:31:41;5.43;;;3.13;;
18210;SDS011;9231;48.852;9.882;2022-10-23T00:34:07;5.97;;;3.40;;
18210;SDS011;9231;48.852;9.882;2022-10-23T00:36:36;6.23;;;3.30;;
18210;SDS011;9231;48.852;9.882;2022-10-23T00:39:02;6.17;;;2.73;;
18210;SDS011;9231;48.852;9.882;2022-10-23T00:41:29;7.47;;;3.47;;
18210;SDS011;9231;48.852;9.882;2022-10-23T00:43:58;5.83;;;2.60;;
18210;SDS011;9231;48.852;9.882;2022-10-23T00:46:25;4.60;;;2.30;;
18210;SDS011;9231;48.852;9.882;2022-10-23T00:48:51;9.33;;;2.40;;
18210;SDS011;9231;48.852;9.882;2022-10-23T00:51:18;6.63;;;2.70;;
18210;SDS011;9231;48.852;9.882;2022-10-23T00:53:46;12.20;;;3.40;;
18210;SDS011;9231;48.852;9.882;2022-10-23T00:56:14;7.80;;;2.93;;
18210;SDS011;9231;48.852;9.882;2022-10-23T00:58:40;6.70;;;2.63;;
18210;SDS011;9231;48.852;9.882;2022-10-23T01:01:13;8.67;;;3.30;;
18210;SDS011;9231;48.852;9.882;2022-10-23T01:03:41;5.53;;;3.03;;
18210;SDS011;9231;48.852;9.882;2022-10-23T01:06:08;3.67;;;2.90;;
18210;SDS011;9231;48.852;9.882;2022-10-23T01:08:36;5.30;;;2.67;;
18210;SDS011;9231;48.852;9.882;2022-10-23T01:11:08;5.60;;;2.90;;
18210;SDS011;9231;48.852;9.882;2022-10-23T01:13:37;5.93;;;2.53;;
18210;SDS011;9231;48.852;9.882;2022-10-23T01:16:07;4.33;;;2.70;;
18210;SDS011;9231;48.852;9.882;2022-10-23T01:18:36;4.87;;;2.70;;
18210;SDS011;9231;48.852;9.882;2022-10-23T01:21:06;7.30;;;2.50;;
18210;SDS011;9231;48.852;9.882;2022-10-23T01:23:47;7.00;;;2.63;;
18210;SDS011;9231;48.852;9.882;2022-10-23T01:26:28;4.23;;;2.60;;
18210;SDS011;9231;48.852;9.882;2022-10-23T01:29:00;7.90;;;2.60;;
18210;SDS011;9231;48.852;9.882;2022-10-23T01:31:30;3.77;;;2.30;;
18210;SDS011;9231;48.852;9.882;2022-10-23T01:33:57;6.03;;;2.40;;
18210;SDS011;9231;48.852;9.882;2022-10-23T01:36:25;3.17;;;2.50;;
18210;SDS011;9231;48.852;9.882;2022-10-23T01:38:52;6.13;;;2.43;;
18210;SDS011;9231;48.852;9.882;2022-10-23T01:41:23;7.40;;;2.53;;
18210;SDS011;9231;48.852;9.882;2022-10-23T01:43:52;5.83;;;2.63;;
18210;SDS011;9231;48.852;9.882;2022-10-23T01:46:21;4.63;;;2.57;;
18210;SDS011;9231;48.852;9.882;2022-10-23T01:48:49;5.00;;;2.27;;
18210;SDS011;9231;48.852;9.882;2022-10-23T01:51:17;6.60;;;2.23;;
18210;SDS011;9231;48.852;9.882;2022-10-23T01:53:44;5.17;;;2.57;;
18210;SDS011;9231;48.852;9.882;2022-10-23T01:56:13;6.23;;;2.90;;
18210;SDS011;9231;48.852;9.882;2022-10-23T01:58:41;7.77;;;2.40;;
18210;SDS011;9231;48.852;9.882;2022-10-23T02:01:08;5.03;;;2.20;;
18210;SDS011;9231;48.852;9.882;2022-10-23T02:03:37;5.87;;;2.83;;
18210;SDS011;9231;48.852;9.882;2022-10-23T02:06:05;4.87;;;2.13;;
18210;SDS011;9231;48.852;9.882;2022-10-23T02:08:31;3.53;;;1.90;;
18210;SDS011;9231;48.852;9.882;2022-10-23T02:10:59;7.17;;;2.37;;
18210;SDS011;9231;48.852;9.882;2022-10-23T02:13:30;6.97;;;2.20;;
18210;SDS011;9231;48.852;9.882;2022-10-23T02:16:00;9.17;;;3.07;;
18210;SDS011;9231;48.852;9.882;2022-10-23T02:18:30;7.37;;;2.30;;
18210;SDS011;9231;48.852;9.882;2022-10-23T02:21:02;5.20;;;2.17;;
18210;SDS011;9231;48.852;9.882;2022-10-23T02:23:31;4.33;;;2.40;;
18210;SDS011;9231;48.852;9.882;2022-10-23T02:25:59;2.50;;;1.80;;
18210;SDS011;9231;48.852;9.882;2022-10-23T02:28:30;4.13;;;2.03;;
18210;SDS011;9231;48.852;9.882;2022-10-23T02:30:59;4.13;;;2.10;;
18210;SDS011;9231;48.852;9.882;2022-10-23T02:33:27;4.83;;;1.80;;
18210;SDS011;9231;48.852;9.882;2022-10-23T02:35:58;5.03;;;1.77;;
18210;SDS011;9231;48.852;9.882;2022-10-23T02:38:27;7.33;;;2.20;;
18210;SDS011;9231;48.852;9.882;2022-10-23T02:40:54;3.40;;;1.83;;
18210;SDS011;9231;48.852;9.882;2022-10-23T02:43:23;6.10;;;2.10;;
18210;SDS011;9231;48.852;9.882;2022-10-23T02:45:52;1.57;;;1.43;;
18210;SDS011;9231;48.852;9.882;2022-10-23T02:48:19;3.73;;;1.73;;
18210;SDS011;9231;48.852;9.882;2022-10-23T02:50:48;8.23;;;2.20;;
18210;SDS011;9231;48.852;9.882;2022-10-23T02:53:17;4.70;;;1.90;;
18210;SDS011;9231;48.852;9.882;2022-10-23T02:55:51;4.97;;;2.00;;
18210;SDS011;9231;48.852;9.882;2022-10-23T02:58:23;1.73;;;1.50;;
18210;SDS011;9231;48.852;9.882;2022-10-23T03:00:52;2.83;;;1.73;;
18210;SDS011;9231;48.852;9.882;2022-10-23T03:03:21;3.47;;;1.70;;
18210;SDS011;9231;48.852;9.882;2022-10-23T03:05:48;4.73;;;1.83;;
18210;SDS011;9231;48.852;9.882;2022-10-23T03:08:15;6.53;;;1.70;;
18210;SDS011;9231;48.852;9.882;2022-10-23T03:10:41;8.50;;;1.70;;
18210;SDS011;9231;48.852;9.882;2022-10-23T03:13:09;5.37;;;2.40;;
18210;SDS011;9231;48.852;9.882;2022-10-23T03:15:36;4.30;;;2.10;;
18210;SDS011;9231;48.852;9.882;2022-10-23T03:18:02;2.93;;;1.73;;
18210;SDS011;9231;48.852;9.882;2022-10-23T03:20:29;2.67;;;1.70;;
18210;SDS011;9231;48.852;9.882;2022-10-23T03:22:55;7.47;;;1.63;;
18210;SDS011;9231;48.852;9.882;2022-10-23T03:25:21;4.40;;;1.50;;
18210;SDS011;9231;48.852;9.882;2022-10-23T03:27:48;5.90;;;1.70;;
18210;SDS011;9231;48.852;9.882;2022-10-23T03:30:16;2.87;;;1.70;;
18210;SDS011;9231;48.852;9.882;2022-10-23T03:32:42;4.13;;;1.60;;
18210;SDS011;9231;48.852;9.882;2022-10-23T03:35:09;8.47;;;1.80;;
18210;SDS011;9231;48.852;9.882;2022-10-23T03:37:35;3.97;;;1.60;;
18210;SDS011;9231;48.852;9.882;2022-10-23T03:40:01;3.60;;;2.00;;
18210;SDS011;9231;48.852;9.882;2022-10-23T03:42:28;3.23;;;1.73;;
18210;SDS011;9231;48.852;9.882;2022-10-23T03:44:54;3.10;;;2.00;;
18210;SDS011;9231;48.852;9.882;2022-10-23T03:47:22;6.20;;;1.80;;
18210;SDS011;9231;48.852;9.882;2022-10-23T03:49:49;3.20;;;1.50;;
18210;SDS011;9231;48.852;9.882;2022-10-23T03:52:16;7.00;;;1.60;;
18210;SDS011;9231;48.852;9.882;2022-10-23T03:54:42;4.10;;;1.90;;
18210;SDS011;9231;48.852;9.882;2022-10-23T03:57:09;5.20;;;1.60;;
18210;SDS011;9231;48.852;9.882;2022-10-23T03:59:35;7.60;;;1.50;;
18210;SDS011;9231;48.852;9.882;2022-10-23T04:02:01;5.10;;;1.67;;
18210;SDS011;9231;48.852;9.882;2022-10-23T04:04:29;5.87;;;1.40;;
18210;SDS011;9231;48.852;9.882;2022-10-23T04:06:56;1.60;;;1.50;;
18210;SDS011;9231;48.852;9.882;2022-10-23T04:09:22;6.17;;;1.57;;
18210;SDS011;9231;48.852;9.882;2022-10-23T04:11:48;2.20;;;1.50;;
18210;SDS011;9231;48.852;9.882;2022-10-23T04:14:15;3.27;;;1.50;;
18210;SDS011;9231;48.852;9.882;2022-10-23T04:16:41;2.83;;;1.80;;
18210;SDS011;9231;48.852;9.882;2022-10-23T04:19:08;2.63;;;1.60;;
18210;SDS011;9231;48.852;9.882;2022-10-23T04:21:35;2.27;;;1.50;;
18210;SDS011;9231;48.852;9.882;2022-10-23T04:24:02;3.20;;;1.60;;
18210;SDS011;9231;48.852;9.882;2022-10-23T04:26:29;4.00;;;1.63;;
18210;SDS011;9231;48.852;9.882;2022-10-23T04:28:55;4.53;;;1.80;;
18210;SDS011;9231;48.852;9.882;2022-10-23T04:31:22;5.00;;;1.50;;
18210;SDS011;9231;48.852;9.882;2022-10-23T04:33:49;6.03;;;2.10;;
18210;SDS011;9231;48.852;9.882;2022-10-23T04:36:15;6.03;;;1.47;;
18210;SDS011;9231;48.852;9.882;2022-10-23T04:38:43;1.80;;;1.50;;
18210;SDS011;9231;48.852;9.882;2022-10-23T04:41:09;3.67;;;1.60;;
18210;SDS011;9231;48.852;9.882;2022-10-23T04:43:36;4.23;;;2.00;;
18210;SDS011;9231;48.852;9.882;2022-10-23T04:46:02;4.73;;;1.53;;
18210;SDS011;9231;48.852;9.882;2022-10-23T04:48:28;2.73;;;1.60;;
18210;SDS011;9231;48.852;9.882;2022-10-23T04:50:55;5.23;;;1.60;;
18210;SDS011;9231;48.852;9.882;2022-10-23T04:53:22;5.03;;;1.73;;
18210;SDS011;9231;48.852;9.882;2022-10-23T04:55:50;2.80;;;1.57;;
18210;SDS011;9231;48.852;9.882;2022-10-23T04:58:17;5.00;;;1.80;;
18210;SDS011;9231;48.852;9.882;2022-10-23T05:00:43;2.97;;;1.70;;
18210;SDS011;9231;48.852;9.882;2022-10-23T05:03:09;3.97;;;1.57;;
18210;SDS011;9231;48.852;9.882;2022-10-23T05:05:36;3.93;;;1.33;;
18210;SDS011;9231;48.852;9.882;2022-10-23T05:08:02;2.07;;;1.30;;
18210;SDS011;9231;48.852;9.882;2022-10-23T05:10:29;2.23;;;2.00;;
18210;SDS011;9231;48.852;9.882;2022-10-23T05:12:56;3.03;;;2.07;;
18210;SDS011;9231;48.852;9.882;2022-10-23T05:15:23;2.63;;;1.27;;
18210;SDS011;9231;48.852;9.882;2022-10-23T05:17:50;1.80;;;1.50;;
18210;SDS011;9231;48.852;9.882;2022-10-23T05:20:19;6.07;;;1.60;;
18210;SDS011;9231;48.852;9.882;2022-10-23T05:22:46;2.17;;;1.13;;
18210;SDS011;9231;48.852;9.882;2022-10-23T05:25:15;5.03;;;2.27;;
18210;SDS011;9231;48.852;9.882;2022-10-23T05:27:42;3.30;;;2.40;;
18210;SDS011;9231;48.852;9.882;2022-10-23T05:30:11;3.80;;;1.60;;
18210;SDS011;9231;48.852;9.882;2022-10-23T05:32:37;3.63;;;1.27;;
18210;SDS011;9231;48.852;9.882;2022-10-23T05:35:05;4.93;;;1.70;;
18210;SDS011;9231;48.852;9.882;2022-10-23T05:37:32;7.77;;;2.10;;
18210;SDS011;9231;48.852;9.882;2022-10-23T05:39:59;3.90;;;2.30;;
18210;SDS011;9231;48.852;9.882;2022-10-23T05:42:25;1.90;;;1.80;;
18210;SDS011;9231;48.852;9.882;2022-10-23T05:44:52;11.40;;;2.23;;
18210;SDS011;9231;48.852;9.882;2022-10-23T05:47:19;7.60;;;2.03;;
18210;SDS011;9231;48.852;9.882;2022-10-23T05:49:46;3.10;;;2.30;;
18210;SDS011;9231;48.852;9.882;2022-10-23T05:52:12;4.97;;;3.03;;
18210;SDS011;9231;48.852;9.882;2022-10-23T05:54:38;8.63;;;4.47;;
18210;SDS011;9231;48.852;9.882;2022-10-23T05:57:05;7.63;;;4.80;;
18210;SDS011;9231;48.852;9.882;2022-10-23T05:59:31;3.77;;;2.83;;
18210;SDS011;9231;48.852;9.882;2022-10-23T06:01:58;3.10;;;1.17;;
18210;SDS011;9231;48.852;9.882;2022-10-23T06:04:26;2.63;;;1.73;;
18210;SDS011;9231;48.852;9.882;2022-10-23T06:06:52;5.83;;;1.77;;
18210;SDS011;9231;48.852;9.882;2022-10-23T06:09:19;7.53;;;3.97;;
18210;SDS011;9231;48.852;9.882;2022-10-23T06:11:45;7.67;;;4.03;;
18210;SDS011;9231;48.852;9.882;2022-10-23T06:14:12;12.43;;;6.70;;
18210;SDS011;9231;48.852;9.882;2022-10-23T06:16:39;9.03;;;5.27;;
18210;SDS011;9231;48.852;9.882;2022-10-23T06:19:05;11.07;;;4.73;;
18210;SDS011;9231;48.852;9.882;2022-10-23T06:21:36;14.40;;;5.27;;
18210;SDS011;9231;48.852;9.882;2022-10-23T06:24:03;7.67;;;3.40;;
18210;SDS011;9231;48.852;9.882;2022-10-23T06:26:29;9.13;;;3.87;;
18210;SDS011;9231;48.852;9.882;2022-10-23T06:28:55;4.50;;;3.37;;
18210;SDS011;9231;48.852;9.882;2022-10-23T06:31:22;4.67;;;1.60;;
18210;SDS011;9231;48.852;9.882;2022-10-23T06:33:50;5.20;;;2.50;;
18210;SDS011;9231;48.852;9.882;2022-10-23T06:36:17;7.30;;;2.50;;
18210;SDS011;9231;48.852;9.882;2022-10-23T06:38:45;2.33;;;1.80;;
18210;SDS011;9231;48.852;9.882;2022-10-23T06:41:12;15.00;;;6.13;;
18210;SDS011;9231;48.852;9.882;2022-10-23T06:43:38;14.93;;;7.20;;
18210;SDS011;9231;48.852;9.882;2022-10-23T06:46:05;13.37;;;6.97;;
18210;SDS011;9231;48.852;9.882;2022-10-23T06:48:32;6.43;;;2.50;;
18210;SDS011;9231;48.852;9.882;2022-10-23T06:50:58;7.47;;;3.87;;
18210;SDS011;9231;48.852;9.882;2022-10-23T06:53:25;5.87;;;3.83;;
18210;SDS011;9231;48.852;9.882;2022-10-23T06:55:57;8.43;;;3.87;;
18210;SDS011;9231;48.852;9.882;2022-10-23T06:58:23;11.63;;;6.60;;
18210;SDS011;9231;48.852;9.882;2022-10-23T07:00:50;12.90;;;7.97;;
18210;SDS011;9231;48.852;9.882;2022-10-23T07:03:16;23.53;;;13.63;;
18210;SDS011;9231;48.852;9.882;2022-10-23T07:05:42;18.03;;;12.03;;
18210;SDS011;9231;48.852;9.882;2022-10-23T07:08:11;9.47;;;6.73;;
18210;SDS011;9231;48.852;9.882;2022-10-23T07:10:38;6.27;;;3.23;;
18210;SDS011;9231;48.852;9.882;2022-10-23T07:13:08;7.63;;;3.97;;
18210;SDS011;9231;48.852;9.882;2022-10-23T07:15:34;26.90;;;18.60;;
18210;SDS011;9231;48.852;9.882;2022-10-23T07:18:01;14.50;;;10.93;;
18210;SDS011;9231;48.852;9.882;2022-10-23T07:20:27;38.17;;;24.83;;
18210;SDS011;9231;48.852;9.882;2022-10-23T07:22:54;11.87;;;9.37;;
18210;SDS011;9231;48.852;9.882;2022-10-23T07:25:21;11.93;;;7.03;;
18210;SDS011;9231;48.852;9.882;2022-10-23T07:27:48;17.83;;;10.87;;
18210;SDS011;9231;48.852;9.882;2022-10-23T07:30:16;32.20;;;21.93;;
18210;SDS011;9231;48.852;9.882;2022-10-23T07:32:43;63.77;;;43.53;;
18210;SDS011;9231;48.852;9.882;2022-10-23T07:35:11;18.60;;;12.90;;
18210;SDS011;9231;48.852;9.882;2022-10-23T07:37:37;10.63;;;6.60;;
18210;SDS011;9231;48.852;9.882;2022-10-23T07:40:04;8.97;;;5.27;;
18210;SDS011;9231;48.852;9.882;2022-10-23T07:42:31;7.80;;;6.43;;
18210;SDS011;9231;48.852;9.882;2022-10-23T07:44:58;4.83;;;3.80;;
18210;SDS011;9231;48.852;9.882;2022-10-23T07:47:26;12.20;;;9.43;;
18210;SDS011;9231;48.852;9.882;2022-10-23T07:49:52;15.23;;;10.10;;
18210;SDS011;9231;48.852;9.882;2022-10-23T07:52:18;14.33;;;10.33;;
18210;SDS011;9231;48.852;9.882;2022-10-23T07:54:45;14.97;;;9.60;;
18210;SDS011;9231;48.852;9.882;2022-10-23T07:57:11;9.13;;;4.00;;
18210;SDS011;9231;48.852;9.882;2022-10-23T07:59:38;8.00;;;6.37;;
18210;SDS011;9231;48.852;9.882;2022-10-23T08:02:07;12.53;;;8.33;;
18210;SDS011;9231;48.852;9.882;2022-10-23T08:04:36;7.50;;;5.00;;
18210;SDS011;9231;48.852;9.882;2022-10-23T08:07:02;12.10;;;10.17;;
18210;SDS011;9231;48.852;9.882;2022-10-23T08:09:29;12.40;;;6.23;;
18210;SDS011;9231;48.852;9.882;2022-10-23T08:11:55;9.90;;;5.63;;
18210;SDS011;9231;48.852;9.882;2022-10-23T08:14:22;7.80;;;5.67;;
18210;SDS011;9231;48.852;9.882;2022-10-23T08:16:48;6.40;;;5.40;;
18210;SDS011;9231;48.852;9.882;2022-10-23T08:19:15;7.87;;;7.03;;
18210;SDS011;9231;48.852;9.882;2022-10-23T08:21:42;11.93;;;6.80;;
18210;SDS011;9231;48.852;9.882;2022-10-23T08:24:09;8.00;;;6.43;;
18210;SDS011;9231;48.852;9.882;2022-10-23T08:26:37;9.03;;;7.60;;
18210;SDS011;9231;48.852;9.882;2022-10-23T08:29:04;6.90;;;6.00;;
18210;SDS011;9231;48.852;9.882;2022-10-23T08:31:31;4.53;;;3.20;;
18210;SDS011;9231;48.852;9.882;2022-10-23T08:33:57;2.73;;;2.23;;
18210;SDS011;9231;48.852;9.882;2022-10-23T08:36:24;5.73;;;4.03;;
18210;SDS011;9231;48.852;9.882;2022-10-23T08:38:53;5.87;;;5.27;;
18210;SDS011;9231;48.852;9.882;2022-10-23T08:41:22;11.63;;;6.53;;
18210;SDS011;9231;48.852;9.882;2022-10-23T08:43:50;8.97;;;5.07;;
18210;SDS011;9231;48.852;9.882;2022-10-23T08:46:18;7.87;;;3.93;;
18210;SDS011;9231;48.852;9.882;2022-10-23T08:48:50;5.97;;;4.13;;
18210;SDS011;9231;48.852;9.882;2022-10-23T08:51:24;4.03;;;3.60;;
18210;SDS011;9231;48.852;9.882;2022-10-23T08:53:53;7.83;;;5.10;;
18210;SDS011;9231;48.852;9.882;2022-10-23T08:56:23;7.97;;;5.33;;
18210;SDS011;9231;48.852;9.882;2022-10-23T08:58:51;7.30;;;5.10;;
18210;SDS011;9231;48.852;9.882;2022-10-23T09:01:30;6.27;;;3.70;;
18210;SDS011;9231;48.852;9.882;2022-10-23T09:03:58;6.30;;;3.13;;
18210;SDS011;9231;48.852;9.882;2022-10-23T09:06:29;2.57;;;1.90;;
18210;SDS011;9231;48.852;9.882;2022-10-23T09:08:58;4.93;;;1.90;;
18210;SDS011;9231;48.852;9.882;2022-10-23T09:11:26;2.00;;;1.40;;
18210;SDS011;9231;48.852;9.882;2022-10-23T09:16:52;3.10;;;1.10;;
18210;SDS011;9231;48.852;9.882;2022-10-23T09:19:24;3.07;;;1.07;;
18210;SDS011;9231;48.852;9.882;2022-10-23T09:21:53;2.40;;;1.17;;
18210;SDS011;9231;48.852;9.882;2022-10-23T09:24:22;3.37;;;1.40;;
18210;SDS011;9231;48.852;9.882;2022-10-23T09:26:50;2.00;;;1.63;;
18210;SDS011;9231;48.852;9.882;2022-10-23T09:29:18;1.85;;;1.35;;
18210;SDS011;9231;48.852;9.882;2022-10-23T09:31:49;5.05;;;1.27;;
18210;SDS011;9231;48.852;9.882;2022-10-23T09:34:18;1.92;;;1.02;;
18210;SDS011;9231;48.852;9.882;2022-10-23T09:36:47;7.25;;;2.70;;
18210;SDS011;9231;48.852;9.882;2022-10-23T09:39:19;1.63;;;1.35;;
18210;SDS011;9231;48.852;9.882;2022-10-23T09:41:47;2.15;;;1.10;;
18210;SDS011;9231;48.852;9.882;2022-10-23T09:44:16;3.17;;;0.90;;
18210;SDS011;9231;48.852;9.882;2022-10-23T09:46:44;1.95;;;0.90;;
18210;SDS011;9231;48.852;9.882;2022-10-23T09:49:15;1.80;;;1.08;;
18210;SDS011;9231;48.852;9.882;2022-10-23T09:51:47;1.65;;;0.88;;
18210;SDS011;9231;48.852;9.882;2022-10-23T09:54:14;3.00;;;1.40;;
18210;SDS011;9231;48.852;9.882;2022-10-23T09:56:45;2.60;;;0.90;;
18210;SDS011;9231;48.852;9.882;2022-10-23T09:59:18;2.50;;;1.00;;
18210;SDS011;9231;48.852;9.882;2022-10-23T10:01:47;1.02;;;0.50;;
18210;SDS011;9231;48.852;9.882;2022-10-23T10:04:14;2.08;;;0.70;;
18210;SDS011;9231;48.852;9.882;2022-10-23T10:06:40;1.15;;;0.40;;
18210;SDS011;9231;48.852;9.882;2022-10-23T10:09:09;1.33;;;0.60;;
18210;SDS011;9231;48.852;9.882;2022-10-23T10:11:38;2.65;;;0.90;;
18210;SDS011;9231;48.852;9.882;2022-10-23T10:14:17;1.77;;;0.45;;
18210;SDS011;9231;48.852;9.882;2022-10-23T10:16:49;1.00;;;0.57;;
18210;SDS011;9231;48.852;9.882;2022-10-23T10:19:22;1.80;;;0.43;;
18210;SDS011;9231;48.852;9.882;2022-10-23T10:21:56;0.85;;;0.50;;
18210;SDS011;9231;48.852;9.882;2022-10-23T10:24:24;2.00;;;0.55;;
18210;SDS011;9231;48.852;9.882;2022-10-23T10:26:55;1.80;;;0.40;;
18210;SDS011;9231;48.852;9.882;2022-10-23T10:29:28;1.13;;;0.50;;
18210;SDS011;9231;48.852;9.882;2022-10-23T10:32:03;2.15;;;0.45;;
18210;SDS011;9231;48.852;9.882;2022-10-23T10:34:32;0.80;;;0.55;;
18210;SDS011;9231;48.852;9.882;2022-10-23T10:37:12;2.38;;;0.68;;
18210;SDS011;9231;48.852;9.882;2022-10-23T10:39:44;6.30;;;4.57;;
18210;SDS011;9231;48.852;9.882;2022-10-23T10:42:20;3.80;;;2.85;;
18210;SDS011;9231;48.852;9.882;2022-10-23T10:44:56;1.10;;;0.80;;
18210;SDS011;9231;48.852;9.882;2022-10-23T10:47:29;0.50;;;0.50;;
18210;SDS011;9231;48.852;9.882;2022-10-23T10:50:01;1.52;;;0.60;;
18210;SDS011;9231;48.852;9.882;2022-10-23T10:52:32;0.68;;;0.50;;
18210;SDS011;9231;48.852;9.882;2022-10-23T10:55:02;1.08;;;0.50;;
18210;SDS011;9231;48.852;9.882;2022-10-23T10:57:35;0.30;;;0.30;;
18210;SDS011;9231;48.852;9.882;2022-10-23T11:00:04;0.40;;;0.38;;
18210;SDS011;9231;48.852;9.882;2022-10-23T11:02:34;0.98;;;0.50;;
18210;SDS011;9231;48.852;9.882;2022-10-23T11:05:04;3.20;;;0.60;;
18210;SDS011;9231;48.852;9.882;2022-10-23T11:07:37;0.70;;;0.40;;
18210;SDS011;9231;48.852;9.882;2022-10-23T11:10:12;1.38;;;0.50;;
18210;SDS011;9231;48.852;9.882;2022-10-23T11:12:39;1.13;;;0.45;;
18210;SDS011;9231;48.852;9.882;2022-10-23T11:15:11;1.83;;;0.52;;
18210;SDS011;9231;48.852;9.882;2022-10-23T11:17:39;1.15;;;0.60;;
18210;SDS011;9231;48.852;9.882;2022-10-23T11:20:09;2.75;;;0.65;;
18210;SDS011;9231;48.852;9.882;2022-10-23T11:22:41;0.77;;;0.47;;
18210;SDS011;9231;48.852;9.882;2022-10-23T11:25:21;0.60;;;0.50;;
18210;SDS011;9231;48.852;9.882;2022-10-23T11:27:56;1.55;;;0.40;;
18210;SDS011;9231;48.852;9.882;2022-10-23T11:30:27;0.73;;;0.52;;
18210;SDS011;9231;48.852;9.882;2022-10-23T11:35:47;0.65;;;0.38;;
18210;SDS011;9231;48.852;9.882;2022-10-23T11:38:18;2.38;;;0.65;;
18210;SDS011;9231;48.852;9.882;2022-10-23T11:40:45;2.97;;;0.45;;
18210;SDS011;9231;48.852;9.882;2022-10-23T11:43:12;1.70;;;0.70;;
18210;SDS011;9231;48.852;9.882;2022-10-23T11:45:50;0.63;;;0.30;;
18210;SDS011;9231;48.852;9.882;2022-10-23T11:48:19;1.13;;;0.68;;
18210;SDS011;9231;48.852;9.882;2022-10-23T11:50:51;0.88;;;0.40;;
18210;SDS011;9231;48.852;9.882;2022-10-23T11:53:23;0.95;;;0.60;;
18210;SDS011;9231;48.852;9.882;2022-10-23T11:55:57;0.55;;;0.50;;
18210;SDS011;9231;48.852;9.882;2022-10-23T11:58:24;0.90;;;0.50;;
18210;SDS011;9231;48.852;9.882;2022-10-23T12:00:57;0.85;;;0.50;;
18210;SDS011;9231;48.852;9.882;2022-10-23T12:03:26;1.63;;;0.70;;
18210;SDS011;9231;48.852;9.882;2022-10-23T12:05:59;2.15;;;0.88;;
18210;SDS011;9231;48.852;9.882;2022-10-23T12:08:28;0.77;;;0.70;;
18210;SDS011;9231;48.852;9.882;2022-10-23T12:10:55;1.52;;;0.93;;
18210;SDS011;9231;48.852;9.882;2022-10-23T12:13:27;1.63;;;0.80;;
18210;SDS011;9231;48.852;9.882;2022-10-23T12:16:02;2.55;;;0.63;;
18210;SDS011;9231;48.852;9.882;2022-10-23T12:18:29;0.55;;;0.47;;
18210;SDS011;9231;48.852;9.882;2022-10-23T12:20:56;1.65;;;0.52;;
18210;SDS011;9231;48.852;9.882;2022-10-23T12:23:27;2.45;;;0.70;;
18210;SDS011;9231;48.852;9.882;2022-10-23T12:26:05;0.73;;;0.57;;
18210;SDS011;9231;48.852;9.882;2022-10-23T12:28:33;1.20;;;0.75;;
18210;SDS011;9231;48.852;9.882;2022-10-23T12:31:04;1.80;;;0.65;;
18210;SDS011;9231;48.852;9.882;2022-10-23T12:33:34;1.67;;;0.50;;
18210;SDS011;9231;48.852;9.882;2022-10-23T12:36:07;0.80;;;0.60;;
18210;SDS011;9231;48.852;9.882;2022-10-23T12:38:40;3.80;;;0.95;;
18210;SDS011;9231;48.852;9.882;2022-10-23T12:41:09;0.80;;;0.60;;
18210;SDS011;9231;48.852;9.882;2022-10-23T12:43:36;1.23;;;0.95;;
18210;SDS011;9231;48.852;9.882;2022-10-23T12:46:04;1.33;;;0.80;;
18210;SDS011;9231;48.852;9.882;2022-10-23T12:48:32;1.77;;;0.80;;
18210;SDS011;9231;48.852;9.882;2022-10-23T12:50:59;4.18;;;0.90;;
18210;SDS011;9231;48.852;9.882;2022-10-23T12:53:26;2.78;;;1.10;;
18210;SDS011;9231;48.852;9.882;2022-10-23T12:55:55;3.17;;;0.52;;
18210;SDS011;9231;48.852;9.882;2022-10-23T12:58:22;3.60;;;0.52;;
18210;SDS011;9231;48.852;9.882;2022-10-23T13:00:49;2.17;;;0.63;;
18210;SDS011;9231;48.852;9.882;2022-10-23T13:03:16;1.88;;;0.50;;
18210;SDS011;9231;48.852;9.882;2022-10-23T13:05:42;2.40;;;0.68;;
18210;SDS011;9231;48.852;9.882;2022-10-23T13:08:08;1.58;;;0.60;;
18210;SDS011;9231;48.852;9.882;2022-10-23T13:10:36;0.82;;;0.55;;
18210;SDS011;9231;48.852;9.882;2022-10-23T13:13:05;1.02;;;0.50;;
18210;SDS011;9231;48.852;9.882;2022-10-23T13:15:36;0.77;;;0.50;;
18210;SDS011;9231;48.852;9.882;2022-10-23T13:18:03;1.00;;;0.90;;
18210;SDS011;9231;48.852;9.882;2022-10-23T13:20:31;1.30;;;0.50;;
18210;SDS011;9231;48.852;9.882;2022-10-23T13:23:00;1.02;;;0.50;;
18210;SDS011;9231;48.852;9.882;2022-10-23T13:25:28;0.50;;;0.35;;
18210;SDS011;9231;48.852;9.882;2022-10-23T13:30:42;3.17;;;0.95;;
18210;SDS011;9231;48.852;9.882;2022-10-23T13:33:14;2.28;;;0.63;;
18210;SDS011;9231;48.852;9.882;2022-10-23T13:35:40;1.48;;;0.73;;
18210;SDS011;9231;48.852;9.882;2022-10-23T13:38:07;2.80;;;0.88;;
18210;SDS011;9231;48.852;9.882;2022-10-23T13:40:34;2.25;;;0.90;;
18210;SDS011;9231;48.852;9.882;2022-10-23T13:43:01;8.90;;;0.93;;
18210;SDS011;9231;48.852;9.882;2022-10-23T13:45:28;1.80;;;0.70;;
18210;SDS011;9231;48.852;9.882;2022-10-23T13:47:55;2.28;;;0.70;;
18210;SDS011;9231;48.852;9.882;2022-10-23T13:50:22;1.27;;;0.45;;
18210;SDS011;9231;48.852;9.882;2022-10-23T13:52:48;2.47;;;0.77;;
18210;SDS011;9231;48.852;9.882;2022-10-23T13:55:17;1.70;;;0.82;;
18210;SDS011;9231;48.852;9.882;2022-10-23T13:57:45;0.98;;;0.60;;
18210;SDS011;9231;48.852;9.882;2022-10-23T14:00:11;1.23;;;0.90;;
18210;SDS011;9231;48.852;9.882;2022-10-23T14:02:39;1.83;;;0.57;;
18210;SDS011;9231;48.852;9.882;2022-10-23T14:05:07;0.88;;;0.52;;
18210;SDS011;9231;48.852;9.882;2022-10-23T14:07:34;2.75;;;0.80;;
18210;SDS011;9231;48.852;9.882;2022-10-23T14:10:00;3.47;;;0.73;;
18210;SDS011;9231;48.852;9.882;2022-10-23T14:12:26;1.55;;;0.55;;
18210;SDS011;9231;48.852;9.882;2022-10-23T14:14:53;1.33;;;0.70;;
18210;SDS011;9231;48.852;9.882;2022-10-23T14:17:19;1.38;;;0.90;;
18210;SDS011;9231;48.852;9.882;2022-10-23T14:19:46;2.00;;;0.70;;
18210;SDS011;9231;48.852;9.882;2022-10-23T14:22:14;1.77;;;1.00;;
18210;SDS011;9231;48.852;9.882;2022-10-23T14:24:40;2.50;;;0.77;;
18210;SDS011;9231;48.852;9.882;2022-10-23T14:27:07;2.28;;;0.85;;
18210;SDS011;9231;48.852;9.882;2022-10-23T14:29:33;2.97;;;0.80;;
18210;SDS011;9231;48.852;9.882;2022-10-23T14:32:00;2.55;;;1.10;;
18210;SDS011;9231;48.852;9.882;2022-10-23T14:34:26;0.82;;;0.55;;
18210;SDS011;9231;48.852;9.882;2022-10-23T14:36:52;1.27;;;0.95;;
18210;SDS011;9231;48.852;9.882;2022-10-23T14:39:20;2.63;;;0.90;;
18210;SDS011;9231;48.852;9.882;2022-10-23T14:41:47;3.22;;;0.85;;
18210;SDS011;9231;48.852;9.882;2022-10-23T14:44:13;1.85;;;0.75;;
18210;SDS011;9231;48.852;9.882;2022-10-23T14:46:40;1.80;;;0.90;;
18210;SDS011;9231;48.852;9.882;2022-10-23T14:49:06;4.13;;;0.75;;
18210;SDS011;9231;48.852;9.882;2022-10-23T14:51:33;3.45;;;0.80;;
18210;SDS011;9231;48.852;9.882;2022-10-23T14:53:59;1.98;;;0.82;;
18210;SDS011;9231;48.852;9.882;2022-10-23T14:56:28;2.20;;;0.70;;
18210;SDS011;9231;48.852;9.882;2022-10-23T14:58:54;2.25;;;1.10;;
18210;SDS011;9231;48.852;9.882;2022-10-23T15:01:26;1.08;;;0.93;;
18210;SDS011;9231;48.852;9.882;2022-10-23T15:03:53;1.95;;;0.80;;
18210;SDS011;9231;48.852;9.882;2022-10-23T15:06:21;1.00;;;0.90;;
18210;SDS011;9231;48.852;9.882;2022-10-23T15:08:48;2.40;;;0.80;;
18210;SDS011;9231;48.852;9.882;2022-10-23T15:11:14;2.85;;;0.80;;
18210;SDS011;9231;48.852;9.882;2022-10-23T15:13:42;3.90;;;0.90;;
18210;SDS011;9231;48.852;9.882;2022-10-23T15:16:08;3.50;;;0.90;;